sensor_id;sensor_type;location;lat;lon;timestamp;P1;durP1;ratioP1;P2;durP2;ratioP2
1376;SDS011;682;52.502;13.488;2023-09-19T00:00:16;5.13;;;2.93;;
1376;SDS011;682;52.502;13.488;2023-09-19T00:02:44;6.90;;;2.63;;
1376;SDS011;682;52.502;13.488;2023-09-19T00:05:12;3.20;;;2.43;;
1376;SDS011;682;52.502;13.488;2023-09-19T00:07:39;6.20;;;2.90;;
1376;SDS011;682;52.502;13.488;2023-09-19T00:10:06;4.73;;;2.80;;
1376;SDS011;682;52.502;13.488;2023-09-19T00:12:34;4.70;;;2.80;;
1376;SDS011;682;52.502;13.488;2023-09-19T00:15:03;4.73;;;3.40;;
1376;SDS011;682;52.502;13.488;2023-09-19T00:17:31;4.23;;;3.33;;
1376;SDS011;682;52.502;13.488;2023-09-19T00:19:59;3.10;;;2.70;;
1376;SDS011;682;52.502;13.488;2023-09-19T00:22:39;4.87;;;3.00;;
1376;SDS011;682;52.502;13.488;2023-09-19T00:25:07;3.53;;;2.73;;
1376;SDS011;682;52.502;13.488;2023-09-19T00:27:35;3.63;;;2.80;;
1376;SDS011;682;52.502;13.488;2023-09-19T00:30:08;3.43;;;2.13;;
1376;SDS011;682;52.502;13.488;2023-09-19T00:32:39;4.30;;;2.40;;
1376;SDS011;682;52.502;13.488;2023-09-19T00:35:07;4.03;;;3.07;;
1376;SDS011;682;52.502;13.488;2023-09-19T00:37:35;2.63;;;2.40;;
1376;SDS011;682;52.502;13.488;2023-09-19T00:40:03;3.00;;;2.80;;
1376;SDS011;682;52.502;13.488;2023-09-19T00:42:30;2.70;;;2.50;;
1376;SDS011;682;52.502;13.488;2023-09-19T00:44:58;2.53;;;2.33;;
1376;SDS011;682;52.502;13.488;2023-09-19T00:47:29;5.17;;;3.47;;
1376;SDS011;682;52.502;13.488;2023-09-19T00:49:56;4.30;;;2.97;;
1376;SDS011;682;52.502;13.488;2023-09-19T00:52:24;4.70;;;3.10;;
1376;SDS011;682;52.502;13.488;2023-09-19T00:54:51;4.40;;;2.77;;
1376;SDS011;682;52.502;13.488;2023-09-19T00:57:18;3.00;;;2.70;;
1376;SDS011;682;52.502;13.488;2023-09-19T00:59:47;2.70;;;2.50;;
1376;SDS011;682;52.502;13.488;2023-09-19T01:02:16;4.27;;;2.63;;
1376;SDS011;682;52.502;13.488;2023-09-19T01:04:45;3.00;;;2.70;;
1376;SDS011;682;52.502;13.488;2023-09-19T01:07:12;2.97;;;2.70;;
1376;SDS011;682;52.502;13.488;2023-09-19T01:09:40;3.83;;;2.87;;
1376;SDS011;682;52.502;13.488;2023-09-19T01:12:07;4.27;;;2.73;;
1376;SDS011;682;52.502;13.488;2023-09-19T01:14:37;4.00;;;2.70;;
1376;SDS011;682;52.502;13.488;2023-09-19T01:17:14;4.07;;;2.60;;
1376;SDS011;682;52.502;13.488;2023-09-19T01:20:01;4.13;;;2.70;;
1376;SDS011;682;52.502;13.488;2023-09-19T01:22:46;5.10;;;2.67;;
1376;SDS011;682;52.502;13.488;2023-09-19T01:25:31;5.93;;;2.70;;
1376;SDS011;682;52.502;13.488;2023-09-19T01:28:15;3.30;;;2.40;;
1376;SDS011;682;52.502;13.488;2023-09-19T01:30:59;5.47;;;2.53;;
1376;SDS011;682;52.502;13.488;2023-09-19T01:33:30;3.07;;;2.77;;
1376;SDS011;682;52.502;13.488;2023-09-19T01:36:24;5.20;;;2.70;;
1376;SDS011;682;52.502;13.488;2023-09-19T01:38:52;3.37;;;3.07;;
1376;SDS011;682;52.502;13.488;2023-09-19T01:41:26;3.40;;;3.00;;
1376;SDS011;682;52.502;13.488;2023-09-19T01:44:04;4.00;;;2.63;;
1376;SDS011;682;52.502;13.488;2023-09-19T01:46:39;5.93;;;2.70;;
1376;SDS011;682;52.502;13.488;2023-09-19T01:49:11;2.80;;;2.30;;
1376;SDS011;682;52.502;13.488;2023-09-19T01:51:51;4.37;;;2.83;;
1376;SDS011;682;52.502;13.488;2023-09-19T01:54:25;2.97;;;2.20;;
1376;SDS011;682;52.502;13.488;2023-09-19T01:56:57;3.80;;;2.30;;
1376;SDS011;682;52.502;13.488;2023-09-19T01:59:32;2.80;;;2.43;;
1376;SDS011;682;52.502;13.488;2023-09-19T02:02:04;3.70;;;2.20;;
1376;SDS011;682;52.502;13.488;2023-09-19T02:04:33;3.90;;;2.50;;
1376;SDS011;682;52.502;13.488;2023-09-19T02:07:01;3.60;;;2.50;;
1376;SDS011;682;52.502;13.488;2023-09-19T02:09:30;4.67;;;2.50;;
1376;SDS011;682;52.502;13.488;2023-09-19T02:12:00;2.93;;;2.63;;
1376;SDS011;682;52.502;13.488;2023-09-19T02:14:29;2.83;;;2.50;;
1376;SDS011;682;52.502;13.488;2023-09-19T02:16:57;4.90;;;2.77;;
1376;SDS011;682;52.502;13.488;2023-09-19T02:19:26;5.83;;;3.20;;
1376;SDS011;682;52.502;13.488;2023-09-19T02:21:53;4.20;;;2.87;;
1376;SDS011;682;52.502;13.488;2023-09-19T02:24:20;3.47;;;2.53;;
1376;SDS011;682;52.502;13.488;2023-09-19T02:26:47;2.83;;;2.30;;
1376;SDS011;682;52.502;13.488;2023-09-19T02:29:13;3.50;;;3.20;;
1376;SDS011;682;52.502;13.488;2023-09-19T02:31:40;3.93;;;2.83;;
1376;SDS011;682;52.502;13.488;2023-09-19T02:34:10;3.73;;;3.27;;
1376;SDS011;682;52.502;13.488;2023-09-19T02:36:39;4.17;;;2.90;;
1376;SDS011;682;52.502;13.488;2023-09-19T02:39:06;2.97;;;2.73;;
1376;SDS011;682;52.502;13.488;2023-09-19T02:41:33;4.63;;;3.17;;
1376;SDS011;682;52.502;13.488;2023-09-19T02:44:00;4.73;;;3.00;;
1376;SDS011;682;52.502;13.488;2023-09-19T02:46:28;3.10;;;2.80;;
1376;SDS011;682;52.502;13.488;2023-09-19T02:48:55;5.60;;;4.20;;
1376;SDS011;682;52.502;13.488;2023-09-19T02:51:22;2.90;;;2.70;;
1376;SDS011;682;52.502;13.488;2023-09-19T02:53:50;4.83;;;3.60;;
1376;SDS011;682;52.502;13.488;2023-09-19T02:56:19;3.20;;;2.73;;
1376;SDS011;682;52.502;13.488;2023-09-19T02:58:47;3.30;;;2.27;;
1376;SDS011;682;52.502;13.488;2023-09-19T03:01:14;2.50;;;2.30;;
1376;SDS011;682;52.502;13.488;2023-09-19T03:03:43;5.00;;;2.70;;
1376;SDS011;682;52.502;13.488;2023-09-19T03:06:11;3.87;;;2.83;;
1376;SDS011;682;52.502;13.488;2023-09-19T03:08:38;5.10;;;2.70;;
1376;SDS011;682;52.502;13.488;2023-09-19T03:13:52;7.80;;;2.60;;
1376;SDS011;682;52.502;13.488;2023-09-19T03:16:19;3.43;;;2.70;;
1376;SDS011;682;52.502;13.488;2023-09-19T03:18:47;2.90;;;2.30;;
1376;SDS011;682;52.502;13.488;2023-09-19T03:21:14;4.00;;;2.77;;
1376;SDS011;682;52.502;13.488;2023-09-19T03:23:54;3.47;;;2.60;;
1376;SDS011;682;52.502;13.488;2023-09-19T03:26:41;4.10;;;2.53;;
1376;SDS011;682;52.502;13.488;2023-09-19T03:29:08;2.57;;;2.37;;
1376;SDS011;682;52.502;13.488;2023-09-19T03:31:36;4.17;;;2.50;;
1376;SDS011;682;52.502;13.488;2023-09-19T03:34:03;4.07;;;2.60;;
1376;SDS011;682;52.502;13.488;2023-09-19T03:36:30;3.33;;;1.80;;
1376;SDS011;682;52.502;13.488;2023-09-19T03:39:11;7.80;;;3.13;;
1376;SDS011;682;52.502;13.488;2023-09-19T03:41:41;2.17;;;1.90;;
1376;SDS011;682;52.502;13.488;2023-09-19T03:44:08;4.20;;;2.13;;
1376;SDS011;682;52.502;13.488;2023-09-19T03:46:35;2.33;;;2.13;;
1376;SDS011;682;52.502;13.488;2023-09-19T03:49:02;2.20;;;2.00;;
1376;SDS011;682;52.502;13.488;2023-09-19T03:51:29;3.83;;;2.27;;
1376;SDS011;682;52.502;13.488;2023-09-19T03:53:56;3.60;;;2.60;;
1376;SDS011;682;52.502;13.488;2023-09-19T03:56:23;2.13;;;1.93;;
1376;SDS011;682;52.502;13.488;2023-09-19T03:58:51;2.50;;;2.20;;
1376;SDS011;682;52.502;13.488;2023-09-19T04:01:18;2.70;;;1.73;;
1376;SDS011;682;52.502;13.488;2023-09-19T04:03:45;2.37;;;2.00;;
1376;SDS011;682;52.502;13.488;2023-09-19T04:06:13;4.10;;;2.90;;
1376;SDS011;682;52.502;13.488;2023-09-19T04:08:40;6.13;;;2.00;;
1376;SDS011;682;52.502;13.488;2023-09-19T04:11:07;2.93;;;2.63;;
1376;SDS011;682;52.502;13.488;2023-09-19T04:13:34;3.80;;;2.07;;
1376;SDS011;682;52.502;13.488;2023-09-19T04:16:02;4.93;;;2.60;;
1376;SDS011;682;52.502;13.488;2023-09-19T04:18:30;2.20;;;1.97;;
1376;SDS011;682;52.502;13.488;2023-09-19T04:20:58;3.70;;;2.87;;
1376;SDS011;682;52.502;13.488;2023-09-19T04:23:27;3.77;;;2.57;;
1376;SDS011;682;52.502;13.488;2023-09-19T04:25:54;2.93;;;2.63;;
1376;SDS011;682;52.502;13.488;2023-09-19T04:28:22;2.63;;;2.43;;
1376;SDS011;682;52.502;13.488;2023-09-19T04:30:49;3.70;;;2.73;;
1376;SDS011;682;52.502;13.488;2023-09-19T04:33:17;4.93;;;2.10;;
1376;SDS011;682;52.502;13.488;2023-09-19T04:35:44;4.00;;;2.90;;
1376;SDS011;682;52.502;13.488;2023-09-19T04:38:11;2.47;;;2.10;;
1376;SDS011;682;52.502;13.488;2023-09-19T04:40:40;3.23;;;2.93;;
1376;SDS011;682;52.502;13.488;2023-09-19T04:43:07;2.60;;;1.80;;
1376;SDS011;682;52.502;13.488;2023-09-19T04:45:33;2.10;;;1.90;;
1376;SDS011;682;52.502;13.488;2023-09-19T04:48:00;2.60;;;2.40;;
1376;SDS011;682;52.502;13.488;2023-09-19T04:50:29;4.53;;;2.10;;
1376;SDS011;682;52.502;13.488;2023-09-19T04:52:56;2.40;;;2.20;;
1376;SDS011;682;52.502;13.488;2023-09-19T04:55:24;4.43;;;2.57;;
1376;SDS011;682;52.502;13.488;2023-09-19T04:57:51;3.30;;;2.13;;
1376;SDS011;682;52.502;13.488;2023-09-19T05:00:19;3.67;;;1.90;;
1376;SDS011;682;52.502;13.488;2023-09-19T05:02:49;2.07;;;1.87;;
1376;SDS011;682;52.502;13.488;2023-09-19T05:05:17;3.50;;;2.47;;
1376;SDS011;682;52.502;13.488;2023-09-19T05:07:49;3.23;;;2.40;;
1376;SDS011;682;52.502;13.488;2023-09-19T05:10:16;4.10;;;2.60;;
1376;SDS011;682;52.502;13.488;2023-09-19T05:12:43;3.10;;;1.73;;
1376;SDS011;682;52.502;13.488;2023-09-19T05:15:12;3.80;;;2.40;;
1376;SDS011;682;52.502;13.488;2023-09-19T05:17:42;2.60;;;1.83;;
1376;SDS011;682;52.502;13.488;2023-09-19T05:20:15;3.50;;;2.33;;
1376;SDS011;682;52.502;13.488;2023-09-19T05:22:51;3.70;;;2.40;;
1376;SDS011;682;52.502;13.488;2023-09-19T05:25:26;2.57;;;2.20;;
1376;SDS011;682;52.502;13.488;2023-09-19T05:27:54;5.57;;;2.33;;
1376;SDS011;682;52.502;13.488;2023-09-19T05:30:22;4.50;;;3.07;;
1376;SDS011;682;52.502;13.488;2023-09-19T05:32:49;3.83;;;2.10;;
1376;SDS011;682;52.502;13.488;2023-09-19T05:35:17;2.70;;;2.30;;
1376;SDS011;682;52.502;13.488;2023-09-19T05:37:46;4.57;;;2.40;;
1376;SDS011;682;52.502;13.488;2023-09-19T05:40:15;2.70;;;2.50;;
1376;SDS011;682;52.502;13.488;2023-09-19T05:42:42;3.13;;;2.30;;
1376;SDS011;682;52.502;13.488;2023-09-19T05:45:10;5.17;;;3.30;;
1376;SDS011;682;52.502;13.488;2023-09-19T05:47:37;2.97;;;2.10;;
1376;SDS011;682;52.502;13.488;2023-09-19T05:50:06;3.10;;;2.17;;
1376;SDS011;682;52.502;13.488;2023-09-19T05:52:34;3.70;;;2.40;;
1376;SDS011;682;52.502;13.488;2023-09-19T05:55:02;5.17;;;3.40;;
1376;SDS011;682;52.502;13.488;2023-09-19T05:57:31;4.30;;;2.63;;
1376;SDS011;682;52.502;13.488;2023-09-19T05:59:58;4.00;;;2.40;;
1376;SDS011;682;52.502;13.488;2023-09-19T06:02:26;3.53;;;2.47;;
1376;SDS011;682;52.502;13.488;2023-09-19T06:04:55;5.50;;;2.80;;
1376;SDS011;682;52.502;13.488;2023-09-19T06:07:22;3.97;;;2.93;;
1376;SDS011;682;52.502;13.488;2023-09-19T06:09:51;3.33;;;2.13;;
1376;SDS011;682;52.502;13.488;2023-09-19T06:12:19;4.40;;;2.43;;
1376;SDS011;682;52.502;13.488;2023-09-19T06:14:47;2.60;;;2.40;;
1376;SDS011;682;52.502;13.488;2023-09-19T06:17:14;2.87;;;2.67;;
1376;SDS011;682;52.502;13.488;2023-09-19T06:19:42;2.97;;;2.27;;
1376;SDS011;682;52.502;13.488;2023-09-19T06:22:14;3.10;;;2.27;;
1376;SDS011;682;52.502;13.488;2023-09-19T06:24:43;4.30;;;2.90;;
1376;SDS011;682;52.502;13.488;2023-09-19T06:27:10;4.37;;;2.80;;
1376;SDS011;682;52.502;13.488;2023-09-19T06:29:36;3.93;;;3.30;;
1376;SDS011;682;52.502;13.488;2023-09-19T06:32:08;5.00;;;2.87;;
1376;SDS011;682;52.502;13.488;2023-09-19T06:34:37;5.80;;;2.77;;
1376;SDS011;682;52.502;13.488;2023-09-19T06:37:08;4.60;;;3.07;;
1376;SDS011;682;52.502;13.488;2023-09-19T06:39:35;3.40;;;2.40;;
1376;SDS011;682;52.502;13.488;2023-09-19T06:42:02;3.10;;;2.50;;
1376;SDS011;682;52.502;13.488;2023-09-19T06:44:30;3.83;;;2.70;;
1376;SDS011;682;52.502;13.488;2023-09-19T06:46:57;3.53;;;2.50;;
1376;SDS011;682;52.502;13.488;2023-09-19T06:49:26;5.83;;;2.30;;
1376;SDS011;682;52.502;13.488;2023-09-19T06:51:54;6.73;;;2.50;;
1376;SDS011;682;52.502;13.488;2023-09-19T06:54:22;4.17;;;3.07;;
1376;SDS011;682;52.502;13.488;2023-09-19T06:56:49;5.90;;;2.50;;
1376;SDS011;682;52.502;13.488;2023-09-19T07:01:51;5.40;;;3.20;;
1376;SDS011;682;52.502;13.488;2023-09-19T07:04:18;3.73;;;2.67;;
1376;SDS011;682;52.502;13.488;2023-09-19T07:06:50;4.90;;;3.40;;
1376;SDS011;682;52.502;13.488;2023-09-19T07:09:17;3.60;;;3.10;;
1376;SDS011;682;52.502;13.488;2023-09-19T07:11:45;4.30;;;2.67;;
1376;SDS011;682;52.502;13.488;2023-09-19T07:14:16;3.83;;;2.50;;
1376;SDS011;682;52.502;13.488;2023-09-19T07:16:43;4.60;;;2.90;;
1376;SDS011;682;52.502;13.488;2023-09-19T07:19:10;5.10;;;2.73;;
1376;SDS011;682;52.502;13.488;2023-09-19T07:21:40;4.07;;;2.50;;
1376;SDS011;682;52.502;13.488;2023-09-19T07:24:09;5.53;;;2.80;;
1376;SDS011;682;52.502;13.488;2023-09-19T07:26:36;4.37;;;2.60;;
1376;SDS011;682;52.502;13.488;2023-09-19T07:29:05;3.37;;;2.70;;
1376;SDS011;682;52.502;13.488;2023-09-19T07:31:34;4.00;;;2.80;;
1376;SDS011;682;52.502;13.488;2023-09-19T07:34:01;8.43;;;3.10;;
1376;SDS011;682;52.502;13.488;2023-09-19T07:36:29;4.77;;;3.00;;
1376;SDS011;682;52.502;13.488;2023-09-19T07:38:58;3.93;;;3.33;;
1376;SDS011;682;52.502;13.488;2023-09-19T07:41:27;4.23;;;2.90;;
1376;SDS011;682;52.502;13.488;2023-09-19T07:43:55;2.63;;;2.40;;
1376;SDS011;682;52.502;13.488;2023-09-19T07:46:22;8.33;;;3.37;;
1376;SDS011;682;52.502;13.488;2023-09-19T07:48:49;4.60;;;3.00;;
1376;SDS011;682;52.502;13.488;2023-09-19T07:51:16;6.00;;;3.73;;
1376;SDS011;682;52.502;13.488;2023-09-19T07:53:44;5.50;;;3.50;;
1376;SDS011;682;52.502;13.488;2023-09-19T07:56:13;4.40;;;3.20;;
1376;SDS011;682;52.502;13.488;2023-09-19T07:58:41;10.03;;;4.50;;
1376;SDS011;682;52.502;13.488;2023-09-19T08:01:09;8.33;;;3.97;;
1376;SDS011;682;52.502;13.488;2023-09-19T08:03:37;5.60;;;3.87;;
1376;SDS011;682;52.502;13.488;2023-09-19T08:06:05;5.47;;;3.60;;
1376;SDS011;682;52.502;13.488;2023-09-19T08:08:33;4.60;;;3.53;;
1376;SDS011;682;52.502;13.488;2023-09-19T08:11:02;3.70;;;3.20;;
1376;SDS011;682;52.502;13.488;2023-09-19T08:13:35;5.77;;;3.50;;
1376;SDS011;682;52.502;13.488;2023-09-19T08:16:10;6.43;;;3.70;;
1376;SDS011;682;52.502;13.488;2023-09-19T08:18:37;4.63;;;3.23;;
1376;SDS011;682;52.502;13.488;2023-09-19T08:21:05;8.67;;;3.70;;
1376;SDS011;682;52.502;13.488;2023-09-19T08:23:33;4.50;;;3.30;;
1376;SDS011;682;52.502;13.488;2023-09-19T08:26:00;6.77;;;3.10;;
1376;SDS011;682;52.502;13.488;2023-09-19T08:28:31;4.23;;;3.00;;
1376;SDS011;682;52.502;13.488;2023-09-19T08:31:01;6.53;;;2.90;;
1376;SDS011;682;52.502;13.488;2023-09-19T08:33:32;6.83;;;3.10;;
1376;SDS011;682;52.502;13.488;2023-09-19T08:36:01;4.27;;;3.33;;
1376;SDS011;682;52.502;13.488;2023-09-19T08:38:30;4.37;;;3.00;;
1376;SDS011;682;52.502;13.488;2023-09-19T08:40:58;5.60;;;3.80;;
1376;SDS011;682;52.502;13.488;2023-09-19T08:43:26;8.13;;;4.03;;
1376;SDS011;682;52.502;13.488;2023-09-19T08:45:54;5.23;;;3.47;;
1376;SDS011;682;52.502;13.488;2023-09-19T08:48:34;5.77;;;3.77;;
1376;SDS011;682;52.502;13.488;2023-09-19T08:51:10;8.40;;;3.80;;
1376;SDS011;682;52.502;13.488;2023-09-19T08:53:47;6.57;;;3.80;;
1376;SDS011;682;52.502;13.488;2023-09-19T08:56:18;4.00;;;3.63;;
1376;SDS011;682;52.502;13.488;2023-09-19T08:58:49;4.33;;;3.63;;
1376;SDS011;682;52.502;13.488;2023-09-19T09:01:19;7.20;;;4.00;;
1376;SDS011;682;52.502;13.488;2023-09-19T09:03:52;5.93;;;3.90;;
1376;SDS011;682;52.502;13.488;2023-09-19T09:06:20;7.30;;;3.70;;
1376;SDS011;682;52.502;13.488;2023-09-19T09:08:48;4.90;;;2.87;;
1376;SDS011;682;52.502;13.488;2023-09-19T09:11:17;5.70;;;3.30;;
1376;SDS011;682;52.502;13.488;2023-09-19T09:13:45;6.60;;;3.40;;
1376;SDS011;682;52.502;13.488;2023-09-19T09:16:13;3.33;;;3.03;;
1376;SDS011;682;52.502;13.488;2023-09-19T09:18:43;3.10;;;2.90;;
1376;SDS011;682;52.502;13.488;2023-09-19T09:21:12;3.60;;;3.13;;
1376;SDS011;682;52.502;13.488;2023-09-19T09:23:40;6.70;;;3.40;;
1376;SDS011;682;52.502;13.488;2023-09-19T09:26:07;4.37;;;3.23;;
1376;SDS011;682;52.502;13.488;2023-09-19T09:28:34;4.20;;;3.30;;
1376;SDS011;682;52.502;13.488;2023-09-19T09:31:04;5.87;;;3.87;;
1376;SDS011;682;52.502;13.488;2023-09-19T09:33:34;4.45;;;4.10;;
1376;SDS011;682;52.502;13.488;2023-09-19T09:36:02;4.93;;;3.30;;
1376;SDS011;682;52.502;13.488;2023-09-19T09:38:44;5.00;;;3.27;;
1376;SDS011;682;52.502;13.488;2023-09-19T09:41:13;4.73;;;4.20;;
1376;SDS011;682;52.502;13.488;2023-09-19T09:43:52;5.80;;;2.70;;
1376;SDS011;682;52.502;13.488;2023-09-19T09:46:20;4.10;;;3.70;;
1376;SDS011;682;52.502;13.488;2023-09-19T09:49:22;5.87;;;4.13;;
1376;SDS011;682;52.502;13.488;2023-09-19T09:52:00;4.03;;;3.60;;
1376;SDS011;682;52.502;13.488;2023-09-19T09:54:32;3.90;;;3.40;;
1376;SDS011;682;52.502;13.488;2023-09-19T09:57:02;6.87;;;4.00;;
1376;SDS011;682;52.502;13.488;2023-09-19T09:59:44;5.70;;;4.37;;
1376;SDS011;682;52.502;13.488;2023-09-19T10:02:16;4.23;;;3.50;;
1376;SDS011;682;52.502;13.488;2023-09-19T10:04:54;6.07;;;4.00;;
1376;SDS011;682;52.502;13.488;2023-09-19T10:07:34;3.97;;;3.00;;
1376;SDS011;682;52.502;13.488;2023-09-19T10:10:07;5.57;;;3.67;;
1376;SDS011;682;52.502;13.488;2023-09-19T10:12:44;3.17;;;2.80;;
1376;SDS011;682;52.502;13.488;2023-09-19T10:15:13;5.00;;;2.87;;
1376;SDS011;682;52.502;13.488;2023-09-19T10:17:45;5.10;;;3.20;;
1376;SDS011;682;52.502;13.488;2023-09-19T10:20:13;4.77;;;3.43;;
1376;SDS011;682;52.502;13.488;2023-09-19T10:22:49;4.23;;;3.23;;
1376;SDS011;682;52.502;13.488;2023-09-19T10:25:27;4.30;;;2.93;;
1376;SDS011;682;52.502;13.488;2023-09-19T10:27:56;7.90;;;3.70;;
1376;SDS011;682;52.502;13.488;2023-09-19T10:30:28;4.00;;;2.80;;
1376;SDS011;682;52.502;13.488;2023-09-19T10:33:02;6.00;;;3.80;;
1376;SDS011;682;52.502;13.488;2023-09-19T10:35:30;5.67;;;2.83;;
1376;SDS011;682;52.502;13.488;2023-09-19T10:37:59;5.10;;;2.77;;
1376;SDS011;682;52.502;13.488;2023-09-19T10:40:29;5.23;;;3.30;;
1376;SDS011;682;52.502;13.488;2023-09-19T10:43:00;4.40;;;2.80;;
1376;SDS011;682;52.502;13.488;2023-09-19T10:45:31;3.83;;;2.90;;
1376;SDS011;682;52.502;13.488;2023-09-19T10:48:00;4.67;;;3.70;;
1376;SDS011;682;52.502;13.488;2023-09-19T10:50:31;3.50;;;3.20;;
1376;SDS011;682;52.502;13.488;2023-09-19T10:53:02;3.97;;;3.50;;
1376;SDS011;682;52.502;13.488;2023-09-19T10:55:34;3.13;;;2.63;;
1376;SDS011;682;52.502;13.488;2023-09-19T10:58:02;3.97;;;3.03;;
1376;SDS011;682;52.502;13.488;2023-09-19T11:00:51;5.80;;;3.70;;
1376;SDS011;682;52.502;13.488;2023-09-19T11:03:21;3.67;;;3.07;;
1376;SDS011;682;52.502;13.488;2023-09-19T11:06:05;3.30;;;3.00;;
1376;SDS011;682;52.502;13.488;2023-09-19T11:11:49;3.33;;;3.00;;
1376;SDS011;682;52.502;13.488;2023-09-19T11:20:17;6.93;;;3.30;;
1376;SDS011;682;52.502;13.488;2023-09-19T11:25:51;5.50;;;3.30;;
1376;SDS011;682;52.502;13.488;2023-09-19T11:28:30;4.43;;;3.33;;
1376;SDS011;682;52.502;13.488;2023-09-19T11:30:58;5.03;;;2.57;;
1376;SDS011;682;52.502;13.488;2023-09-19T11:33:46;3.93;;;2.90;;
1376;SDS011;682;52.502;13.488;2023-09-19T11:36:15;3.57;;;2.73;;
1376;SDS011;682;52.502;13.488;2023-09-19T11:38:57;4.37;;;2.63;;
1376;SDS011;682;52.502;13.488;2023-09-19T11:41:38;3.13;;;2.83;;
1376;SDS011;682;52.502;13.488;2023-09-19T11:47:03;3.27;;;2.47;;
1376;SDS011;682;52.502;13.488;2023-09-19T11:49:32;4.83;;;2.50;;
1376;SDS011;682;52.502;13.488;2023-09-19T11:52:02;4.47;;;2.90;;
1376;SDS011;682;52.502;13.488;2023-09-19T11:54:33;4.53;;;2.90;;
1376;SDS011;682;52.502;13.488;2023-09-19T11:57:05;5.20;;;3.00;;
1376;SDS011;682;52.502;13.488;2023-09-19T11:59:38;9.40;;;4.80;;
1376;SDS011;682;52.502;13.488;2023-09-19T12:02:06;5.00;;;2.97;;
1376;SDS011;682;52.502;13.488;2023-09-19T12:04:34;4.43;;;2.97;;
1376;SDS011;682;52.502;13.488;2023-09-19T12:07:04;3.10;;;2.40;;
1376;SDS011;682;52.502;13.488;2023-09-19T12:09:38;4.37;;;2.60;;
1376;SDS011;682;52.502;13.488;2023-09-19T12:12:09;5.50;;;2.57;;
1376;SDS011;682;52.502;13.488;2023-09-19T12:14:43;5.20;;;2.00;;
1376;SDS011;682;52.502;13.488;2023-09-19T12:17:14;4.60;;;2.10;;
1376;SDS011;682;52.502;13.488;2023-09-19T12:19:49;3.20;;;2.40;;
1376;SDS011;682;52.502;13.488;2023-09-19T12:22:17;4.33;;;2.43;;
1376;SDS011;682;52.502;13.488;2023-09-19T12:24:45;9.63;;;2.70;;
1376;SDS011;682;52.502;13.488;2023-09-19T12:27:13;4.60;;;2.63;;
1376;SDS011;682;52.502;13.488;2023-09-19T12:29:45;4.13;;;2.37;;
1376;SDS011;682;52.502;13.488;2023-09-19T12:32:14;4.33;;;2.67;;
1376;SDS011;682;52.502;13.488;2023-09-19T12:34:45;3.83;;;2.67;;
1376;SDS011;682;52.502;13.488;2023-09-19T12:37:17;4.40;;;2.47;;
1376;SDS011;682;52.502;13.488;2023-09-19T12:39:48;3.63;;;2.30;;
1376;SDS011;682;52.502;13.488;2023-09-19T12:42:18;3.00;;;2.20;;
1376;SDS011;682;52.502;13.488;2023-09-19T12:44:50;4.23;;;2.10;;
1376;SDS011;682;52.502;13.488;2023-09-19T12:47:20;5.13;;;2.30;;
1376;SDS011;682;52.502;13.488;2023-09-19T12:50:11;4.47;;;3.10;;
1376;SDS011;682;52.502;13.488;2023-09-19T12:52:45;3.17;;;1.97;;
1376;SDS011;682;52.502;13.488;2023-09-19T12:55:20;5.50;;;2.07;;
1376;SDS011;682;52.502;13.488;2023-09-19T12:58:07;4.40;;;2.50;;
1376;SDS011;682;52.502;13.488;2023-09-19T13:00:38;4.60;;;2.33;;
1376;SDS011;682;52.502;13.488;2023-09-19T13:03:15;2.37;;;2.17;;
1376;SDS011;682;52.502;13.488;2023-09-19T13:05:56;2.87;;;2.03;;
1376;SDS011;682;52.502;13.488;2023-09-19T13:08:26;4.27;;;2.23;;
1376;SDS011;682;52.502;13.488;2023-09-19T13:11:08;3.03;;;2.00;;
1376;SDS011;682;52.502;13.488;2023-09-19T13:13:38;5.53;;;2.47;;
1376;SDS011;682;52.502;13.488;2023-09-19T13:16:07;3.30;;;1.80;;
1376;SDS011;682;52.502;13.488;2023-09-19T13:18:41;5.60;;;2.70;;
1376;SDS011;682;52.502;13.488;2023-09-19T13:21:11;5.60;;;3.00;;
1376;SDS011;682;52.502;13.488;2023-09-19T13:23:51;3.93;;;2.10;;
1376;SDS011;682;52.502;13.488;2023-09-19T13:26:19;3.20;;;2.17;;
1376;SDS011;682;52.502;13.488;2023-09-19T13:28:48;4.97;;;2.40;;
1376;SDS011;682;52.502;13.488;2023-09-19T13:31:17;4.70;;;2.83;;
1376;SDS011;682;52.502;13.488;2023-09-19T13:33:47;6.03;;;2.37;;
1376;SDS011;682;52.502;13.488;2023-09-19T13:36:15;2.60;;;1.93;;
1376;SDS011;682;52.502;13.488;2023-09-19T13:38:51;5.37;;;2.07;;
1376;SDS011;682;52.502;13.488;2023-09-19T13:41:24;4.00;;;2.00;;
1376;SDS011;682;52.502;13.488;2023-09-19T13:43:51;2.90;;;2.07;;
1376;SDS011;682;52.502;13.488;2023-09-19T13:46:20;3.77;;;2.67;;
1376;SDS011;682;52.502;13.488;2023-09-19T13:48:50;3.30;;;2.20;;
1376;SDS011;682;52.502;13.488;2023-09-19T13:51:19;3.53;;;1.67;;
1376;SDS011;682;52.502;13.488;2023-09-19T13:53:49;3.10;;;2.07;;
1376;SDS011;682;52.502;13.488;2023-09-19T13:56:18;4.50;;;2.00;;
1376;SDS011;682;52.502;13.488;2023-09-19T13:58:45;4.10;;;2.20;;
1376;SDS011;682;52.502;13.488;2023-09-19T14:01:13;2.07;;;1.87;;
1376;SDS011;682;52.502;13.488;2023-09-19T14:03:42;4.60;;;1.67;;
1376;SDS011;682;52.502;13.488;2023-09-19T14:06:14;3.53;;;2.00;;
1376;SDS011;682;52.502;13.488;2023-09-19T14:08:43;5.70;;;2.10;;
1376;SDS011;682;52.502;13.488;2023-09-19T14:11:12;6.53;;;2.47;;
1376;SDS011;682;52.502;13.488;2023-09-19T14:13:41;4.07;;;2.10;;
1376;SDS011;682;52.502;13.488;2023-09-19T14:16:12;2.50;;;2.00;;
1376;SDS011;682;52.502;13.488;2023-09-19T14:18:39;3.00;;;2.00;;
1376;SDS011;682;52.502;13.488;2023-09-19T14:21:08;3.43;;;2.20;;
1376;SDS011;682;52.502;13.488;2023-09-19T14:23:36;6.20;;;1.93;;
1376;SDS011;682;52.502;13.488;2023-09-19T14:26:09;2.80;;;2.20;;
1376;SDS011;682;52.502;13.488;2023-09-19T14:28:36;3.50;;;1.90;;
1376;SDS011;682;52.502;13.488;2023-09-19T14:31:05;4.53;;;1.87;;
1376;SDS011;682;52.502;13.488;2023-09-19T14:33:33;4.80;;;2.30;;
1376;SDS011;682;52.502;13.488;2023-09-19T14:36:04;4.60;;;2.50;;
1376;SDS011;682;52.502;13.488;2023-09-19T14:38:38;5.63;;;1.77;;
1376;SDS011;682;52.502;13.488;2023-09-19T14:41:09;4.37;;;2.37;;
1376;SDS011;682;52.502;13.488;2023-09-19T14:43:36;4.77;;;2.60;;
1376;SDS011;682;52.502;13.488;2023-09-19T14:46:03;2.73;;;2.07;;
1376;SDS011;682;52.502;13.488;2023-09-19T14:48:32;2.63;;;2.10;;
1376;SDS011;682;52.502;13.488;2023-09-19T14:51:01;7.13;;;2.20;;
1376;SDS011;682;52.502;13.488;2023-09-19T14:53:29;4.13;;;2.00;;
1376;SDS011;682;52.502;13.488;2023-09-19T14:55:59;4.30;;;2.23;;
1376;SDS011;682;52.502;13.488;2023-09-19T14:58:28;3.70;;;1.97;;
1376;SDS011;682;52.502;13.488;2023-09-19T15:01:02;3.50;;;2.40;;
1376;SDS011;682;52.502;13.488;2023-09-19T15:03:31;2.97;;;1.90;;
1376;SDS011;682;52.502;13.488;2023-09-19T15:05:59;2.57;;;2.10;;
1376;SDS011;682;52.502;13.488;2023-09-19T15:08:27;2.33;;;1.80;;
1376;SDS011;682;52.502;13.488;2023-09-19T15:10:54;7.83;;;4.07;;
1376;SDS011;682;52.502;13.488;2023-09-19T15:13:24;3.77;;;2.43;;
1376;SDS011;682;52.502;13.488;2023-09-19T15:15:57;2.90;;;2.13;;
1376;SDS011;682;52.502;13.488;2023-09-19T15:18:26;2.67;;;2.47;;
1376;SDS011;682;52.502;13.488;2023-09-19T15:20:55;2.93;;;2.67;;
1376;SDS011;682;52.502;13.488;2023-09-19T15:23:26;6.47;;;2.90;;
1376;SDS011;682;52.502;13.488;2023-09-19T15:25:54;4.53;;;2.30;;
1376;SDS011;682;52.502;13.488;2023-09-19T15:28:24;5.20;;;1.93;;
1376;SDS011;682;52.502;13.488;2023-09-19T15:30:56;4.30;;;2.50;;
1376;SDS011;682;52.502;13.488;2023-09-19T15:33:24;2.80;;;2.27;;
1376;SDS011;682;52.502;13.488;2023-09-19T15:35:52;3.03;;;2.30;;
1376;SDS011;682;52.502;13.488;2023-09-19T15:38:19;4.57;;;2.20;;
1376;SDS011;682;52.502;13.488;2023-09-19T15:40:47;3.33;;;2.03;;
1376;SDS011;682;52.502;13.488;2023-09-19T15:43:14;4.53;;;2.63;;
1376;SDS011;682;52.502;13.488;2023-09-19T15:45:45;4.43;;;2.43;;
1376;SDS011;682;52.502;13.488;2023-09-19T15:48:13;5.20;;;3.03;;
1376;SDS011;682;52.502;13.488;2023-09-19T15:50:40;4.70;;;2.77;;
1376;SDS011;682;52.502;13.488;2023-09-19T15:53:09;3.10;;;2.40;;